sensor_id;sensor_type;location;lat;lon;timestamp;P1;durP1;ratioP1;P2;durP2;ratioP2
44446;SDS011;30152;52.066;5.358;2023-07-24T06:48:22;16.30;;;8.02;;
44446;SDS011;30152;52.066;5.358;2023-07-24T06:50:48;17.63;;;7.82;;
44446;SDS011;30152;52.066;5.358;2023-07-24T06:53:13;16.98;;;8.57;;
44446;SDS011;30152;52.066;5.358;2023-07-24T06:55:39;15.52;;;8.25;;
44446;SDS011;30152;52.066;5.358;2023-07-24T06:58:05;15.38;;;8.10;;
44446;SDS011;30152;52.066;5.358;2023-07-24T07:00:31;15.15;;;7.00;;
44446;SDS011;30152;52.066;5.358;2023-07-24T07:02:56;14.48;;;7.30;;
44446;SDS011;30152;52.066;5.358;2023-07-24T07:05:22;19.95;;;8.02;;
44446;SDS011;30152;52.066;5.358;2023-07-24T07:07:47;18.73;;;7.07;;
44446;SDS011;30152;52.066;5.358;2023-07-24T07:10:13;15.18;;;7.47;;
44446;SDS011;30152;52.066;5.358;2023-07-24T07:12:39;13.43;;;7.18;;
44446;SDS011;30152;52.066;5.358;2023-07-24T07:15:04;14.40;;;7.65;;
44446;SDS011;30152;52.066;5.358;2023-07-24T07:17:30;15.63;;;6.68;;
44446;SDS011;30152;52.066;5.358;2023-07-24T07:19:56;16.60;;;8.18;;
44446;SDS011;30152;52.066;5.358;2023-07-24T07:22:22;11.68;;;6.93;;
44446;SDS011;30152;52.066;5.358;2023-07-24T07:24:48;12.93;;;7.13;;
44446;SDS011;30152;52.066;5.358;2023-07-24T07:27:14;13.32;;;7.05;;
44446;SDS011;30152;52.066;5.358;2023-07-24T07:29:42;15.30;;;7.15;;
44446;SDS011;30152;52.066;5.358;2023-07-24T07:32:08;14.65;;;6.78;;
44446;SDS011;30152;52.066;5.358;2023-07-24T07:34:33;13.35;;;6.95;;
44446;SDS011;30152;52.066;5.358;2023-07-24T07:37:01;13.27;;;6.85;;
44446;SDS011;30152;52.066;5.358;2023-07-24T07:39:26;11.43;;;6.63;;
44446;SDS011;30152;52.066;5.358;2023-07-24T07:41:52;15.23;;;7.25;;
44446;SDS011;30152;52.066;5.358;2023-07-24T07:44:17;11.70;;;6.35;;
44446;SDS011;30152;52.066;5.358;2023-07-24T07:46:43;14.73;;;6.70;;
44446;SDS011;30152;52.066;5.358;2023-07-24T07:49:08;12.80;;;7.07;;
44446;SDS011;30152;52.066;5.358;2023-07-24T07:51:34;13.82;;;6.15;;
44446;SDS011;30152;52.066;5.358;2023-07-24T07:54:00;13.43;;;6.35;;
44446;SDS011;30152;52.066;5.358;2023-07-24T07:56:25;16.77;;;6.97;;
44446;SDS011;30152;52.066;5.358;2023-07-24T07:58:51;13.90;;;6.63;;
44446;SDS011;30152;52.066;5.358;2023-07-24T08:01:16;13.20;;;7.40;;
44446;SDS011;30152;52.066;5.358;2023-07-24T08:03:42;16.42;;;6.63;;
44446;SDS011;30152;52.066;5.358;2023-07-24T08:06:08;12.32;;;6.43;;
44446;SDS011;30152;52.066;5.358;2023-07-24T08:08:33;13.02;;;6.78;;
44446;SDS011;30152;52.066;5.358;2023-07-24T08:11:03;17.02;;;6.65;;
44446;SDS011;30152;52.066;5.358;2023-07-24T08:13:30;13.70;;;6.38;;
44446;SDS011;30152;52.066;5.358;2023-07-24T08:15:55;12.32;;;5.70;;
44446;SDS011;30152;52.066;5.358;2023-07-24T08:18:21;11.68;;;5.78;;
44446;SDS011;30152;52.066;5.358;2023-07-24T08:20:46;11.15;;;5.28;;
44446;SDS011;30152;52.066;5.358;2023-07-24T08:23:12;15.18;;;6.13;;
44446;SDS011;30152;52.066;5.358;2023-07-24T08:25:37;14.60;;;5.35;;
44446;SDS011;30152;52.066;5.358;2023-07-24T08:28:03;11.65;;;6.28;;
44446;SDS011;30152;52.066;5.358;2023-07-24T08:30:29;11.57;;;5.75;;
44446;SDS011;30152;52.066;5.358;2023-07-24T08:32:56;10.90;;;5.88;;
44446;SDS011;30152;52.066;5.358;2023-07-24T08:35:22;12.20;;;6.07;;
44446;SDS011;30152;52.066;5.358;2023-07-24T08:37:48;9.65;;;6.00;;
44446;SDS011;30152;52.066;5.358;2023-07-24T08:40:15;11.52;;;6.15;;
44446;SDS011;30152;52.066;5.358;2023-07-24T08:42:42;11.85;;;6.30;;
44446;SDS011;30152;52.066;5.358;2023-07-24T08:45:11;11.00;;;6.30;;
44446;SDS011;30152;52.066;5.358;2023-07-24T08:47:38;14.13;;;6.45;;
44446;SDS011;30152;52.066;5.358;2023-07-24T08:50:10;12.23;;;6.65;;
44446;SDS011;30152;52.066;5.358;2023-07-24T08:52:40;15.80;;;7.90;;
44446;SDS011;30152;52.066;5.358;2023-07-24T08:55:07;13.65;;;6.03;;
44446;SDS011;30152;52.066;5.358;2023-07-24T08:57:33;12.32;;;6.72;;
44446;SDS011;30152;52.066;5.358;2023-07-24T08:59:59;13.60;;;6.53;;
44446;SDS011;30152;52.066;5.358;2023-07-24T09:02:29;12.55;;;6.68;;
44446;SDS011;30152;52.066;5.358;2023-07-24T09:04:55;16.23;;;8.02;;
44446;SDS011;30152;52.066;5.358;2023-07-24T09:07:21;14.98;;;7.30;;
44446;SDS011;30152;52.066;5.358;2023-07-24T09:09:47;16.08;;;6.75;;
44446;SDS011;30152;52.066;5.358;2023-07-24T09:12:14;12.15;;;6.20;;
44446;SDS011;30152;52.066;5.358;2023-07-24T09:14:41;12.35;;;7.53;;
44446;SDS011;30152;52.066;5.358;2023-07-24T09:19:33;12.05;;;6.35;;
44446;SDS011;30152;52.066;5.358;2023-07-24T09:22:08;10.30;;;5.72;;
44446;SDS011;30152;52.066;5.358;2023-07-24T09:24:35;12.18;;;6.03;;
44446;SDS011;30152;52.066;5.358;2023-07-24T09:27:04;12.35;;;5.95;;
44446;SDS011;30152;52.066;5.358;2023-07-24T09:29:30;10.13;;;5.53;;
44446;SDS011;30152;52.066;5.358;2023-07-24T09:31:57;11.38;;;6.50;;
44446;SDS011;30152;52.066;5.358;2023-07-24T09:34:23;11.07;;;6.47;;
44446;SDS011;30152;52.066;5.358;2023-07-24T09:36:50;10.88;;;5.65;;
44446;SDS011;30152;52.066;5.358;2023-07-24T09:39:22;15.18;;;7.07;;
44446;SDS011;30152;52.066;5.358;2023-07-24T09:41:48;12.60;;;6.32;;
44446;SDS011;30152;52.066;5.358;2023-07-24T09:44:15;12.63;;;6.38;;
44446;SDS011;30152;52.066;5.358;2023-07-24T09:46:41;11.88;;;6.45;;
44446;SDS011;30152;52.066;5.358;2023-07-24T09:49:09;13.13;;;6.53;;
44446;SDS011;30152;52.066;5.358;2023-07-24T09:51:35;12.10;;;6.38;;
44446;SDS011;30152;52.066;5.358;2023-07-24T09:54:06;13.30;;;6.20;;
44446;SDS011;30152;52.066;5.358;2023-07-24T09:56:47;12.18;;;5.65;;
44446;SDS011;30152;52.066;5.358;2023-07-24T09:59:14;11.07;;;5.75;;
44446;SDS011;30152;52.066;5.358;2023-07-24T10:01:40;15.50;;;6.85;;
44446;SDS011;30152;52.066;5.358;2023-07-24T10:04:07;16.67;;;6.93;;
44446;SDS011;30152;52.066;5.358;2023-07-24T10:06:33;12.77;;;5.65;;
44446;SDS011;30152;52.066;5.358;2023-07-24T10:08:59;16.17;;;6.03;;
44446;SDS011;30152;52.066;5.358;2023-07-24T10:11:26;12.60;;;6.10;;
44446;SDS011;30152;52.066;5.358;2023-07-24T10:13:52;13.18;;;5.75;;
44446;SDS011;30152;52.066;5.358;2023-07-24T10:16:19;12.90;;;5.20;;
44446;SDS011;30152;52.066;5.358;2023-07-24T10:18:45;11.88;;;5.47;;
44446;SDS011;30152;52.066;5.358;2023-07-24T10:21:11;14.82;;;5.85;;
44446;SDS011;30152;52.066;5.358;2023-07-24T10:23:40;16.25;;;5.78;;
44446;SDS011;30152;52.066;5.358;2023-07-24T10:26:08;15.35;;;6.03;;
44446;SDS011;30152;52.066;5.358;2023-07-24T10:28:35;15.23;;;5.72;;
44446;SDS011;30152;52.066;5.358;2023-07-24T10:31:05;10.32;;;5.28;;
44446;SDS011;30152;52.066;5.358;2023-07-24T10:33:34;13.30;;;5.30;;
44446;SDS011;30152;52.066;5.358;2023-07-24T10:36:08;13.70;;;4.65;;
44446;SDS011;30152;52.066;5.358;2023-07-24T10:38:42;10.13;;;5.20;;
44446;SDS011;30152;52.066;5.358;2023-07-24T10:41:09;12.25;;;5.35;;
44446;SDS011;30152;52.066;5.358;2023-07-24T10:46:08;10.20;;;5.38;;
44446;SDS011;30152;52.066;5.358;2023-07-24T10:48:36;15.50;;;6.30;;
44446;SDS011;30152;52.066;5.358;2023-07-24T10:51:06;13.00;;;6.05;;
44446;SDS011;30152;52.066;5.358;2023-07-24T10:53:35;14.77;;;5.57;;
44446;SDS011;30152;52.066;5.358;2023-07-24T10:56:03;10.90;;;5.55;;
44446;SDS011;30152;52.066;5.358;2023-07-24T10:58:29;12.25;;;4.97;;
44446;SDS011;30152;52.066;5.358;2023-07-24T11:00:56;12.48;;;5.82;;
44446;SDS011;30152;52.066;5.358;2023-07-24T11:03:22;12.27;;;6.53;;
44446;SDS011;30152;52.066;5.358;2023-07-24T11:05:49;14.07;;;5.45;;
44446;SDS011;30152;52.066;5.358;2023-07-24T11:08:16;11.55;;;6.22;;
44446;SDS011;30152;52.066;5.358;2023-07-24T11:13:12;9.73;;;5.00;;
44446;SDS011;30152;52.066;5.358;2023-07-24T11:15:38;14.50;;;6.10;;
44446;SDS011;30152;52.066;5.358;2023-07-24T11:18:04;10.25;;;5.88;;
44446;SDS011;30152;52.066;5.358;2023-07-24T11:20:33;11.98;;;6.30;;
44446;SDS011;30152;52.066;5.358;2023-07-24T11:23:03;17.40;;;6.43;;
44446;SDS011;30152;52.066;5.358;2023-07-24T11:25:28;14.23;;;6.18;;
44446;SDS011;30152;52.066;5.358;2023-07-24T11:27:55;14.40;;;6.53;;
44446;SDS011;30152;52.066;5.358;2023-07-24T11:30:20;14.77;;;8.30;;
44446;SDS011;30152;52.066;5.358;2023-07-24T11:32:47;16.45;;;7.28;;
44446;SDS011;30152;52.066;5.358;2023-07-24T11:35:13;12.15;;;6.85;;
44446;SDS011;30152;52.066;5.358;2023-07-24T11:37:40;12.50;;;7.88;;
44446;SDS011;30152;52.066;5.358;2023-07-24T11:40:05;13.05;;;7.53;;
44446;SDS011;30152;52.066;5.358;2023-07-24T11:42:44;14.88;;;7.47;;
44446;SDS011;30152;52.066;5.358;2023-07-24T11:45:09;14.90;;;8.10;;
44446;SDS011;30152;52.066;5.358;2023-07-24T11:50:10;12.50;;;6.97;;
44446;SDS011;30152;52.066;5.358;2023-07-24T11:52:41;14.75;;;7.47;;
44446;SDS011;30152;52.066;5.358;2023-07-24T11:55:11;11.10;;;6.40;;
44446;SDS011;30152;52.066;5.358;2023-07-24T11:57:37;13.05;;;6.47;;
44446;SDS011;30152;52.066;5.358;2023-07-24T12:00:03;12.82;;;6.38;;
44446;SDS011;30152;52.066;5.358;2023-07-24T12:02:31;10.25;;;6.18;;
44446;SDS011;30152;52.066;5.358;2023-07-24T12:04:59;10.98;;;6.05;;
44446;SDS011;30152;52.066;5.358;2023-07-24T12:07:32;14.85;;;6.78;;
44446;SDS011;30152;52.066;5.358;2023-07-24T12:09:59;14.32;;;6.20;;
44446;SDS011;30152;52.066;5.358;2023-07-24T12:12:36;13.20;;;6.93;;
44446;SDS011;30152;52.066;5.358;2023-07-24T12:15:02;15.50;;;7.35;;
44446;SDS011;30152;52.066;5.358;2023-07-24T12:17:28;14.30;;;6.50;;
44446;SDS011;30152;52.066;5.358;2023-07-24T12:19:53;14.15;;;6.43;;
44446;SDS011;30152;52.066;5.358;2023-07-24T12:22:19;13.93;;;6.80;;
44446;SDS011;30152;52.066;5.358;2023-07-24T12:24:45;12.73;;;6.40;;
44446;SDS011;30152;52.066;5.358;2023-07-24T12:27:10;18.08;;;7.55;;
44446;SDS011;30152;52.066;5.358;2023-07-24T12:29:36;14.02;;;7.43;;
44446;SDS011;30152;52.066;5.358;2023-07-24T12:32:02;11.57;;;6.93;;
44446;SDS011;30152;52.066;5.358;2023-07-24T12:34:27;11.85;;;6.35;;
44446;SDS011;30152;52.066;5.358;2023-07-24T12:36:53;15.27;;;7.10;;
44446;SDS011;30152;52.066;5.358;2023-07-24T12:39:19;14.20;;;6.25;;
44446;SDS011;30152;52.066;5.358;2023-07-24T12:41:45;12.45;;;5.78;;
44446;SDS011;30152;52.066;5.358;2023-07-24T12:44:10;11.32;;;5.78;;
44446;SDS011;30152;52.066;5.358;2023-07-24T12:46:36;10.77;;;6.18;;
44446;SDS011;30152;52.066;5.358;2023-07-24T12:49:01;10.80;;;6.45;;
44446;SDS011;30152;52.066;5.358;2023-07-24T12:51:27;13.40;;;6.97;;
44446;SDS011;30152;52.066;5.358;2023-07-24T12:53:52;10.23;;;6.10;;
44446;SDS011;30152;52.066;5.358;2023-07-24T12:56:18;10.75;;;6.60;;
44446;SDS011;30152;52.066;5.358;2023-07-24T12:58:43;12.02;;;6.80;;
44446;SDS011;30152;52.066;5.358;2023-07-24T13:01:09;11.75;;;7.20;;
44446;SDS011;30152;52.066;5.358;2023-07-24T13:03:34;18.85;;;8.07;;
44446;SDS011;30152;52.066;5.358;2023-07-24T13:06:00;11.52;;;5.70;;
44446;SDS011;30152;52.066;5.358;2023-07-24T13:08:26;10.90;;;6.40;;
44446;SDS011;30152;52.066;5.358;2023-07-24T13:10:52;12.90;;;6.45;;
44446;SDS011;30152;52.066;5.358;2023-07-24T13:13:17;13.68;;;5.75;;
44446;SDS011;30152;52.066;5.358;2023-07-24T13:15:43;10.57;;;5.85;;
44446;SDS011;30152;52.066;5.358;2023-07-24T13:18:08;10.70;;;6.10;;
44446;SDS011;30152;52.066;5.358;2023-07-24T13:20:35;13.25;;;5.88;;
44446;SDS011;30152;52.066;5.358;2023-07-24T13:23:02;11.50;;;6.03;;
44446;SDS011;30152;52.066;5.358;2023-07-24T13:25:27;11.80;;;6.32;;
44446;SDS011;30152;52.066;5.358;2023-07-24T13:27:53;12.80;;;7.13;;
44446;SDS011;30152;52.066;5.358;2023-07-24T13:30:19;16.45;;;7.75;;
44446;SDS011;30152;52.066;5.358;2023-07-24T13:32:45;14.00;;;8.00;;
44446;SDS011;30152;52.066;5.358;2023-07-24T13:35:11;17.77;;;8.88;;
44446;SDS011;30152;52.066;5.358;2023-07-24T13:37:36;15.18;;;9.45;;
44446;SDS011;30152;52.066;5.358;2023-07-24T13:40:02;19.65;;;10.98;;
44446;SDS011;30152;52.066;5.358;2023-07-24T13:42:28;14.98;;;9.88;;
44446;SDS011;30152;52.066;5.358;2023-07-24T13:44:54;17.92;;;10.43;;
44446;SDS011;30152;52.066;5.358;2023-07-24T13:47:20;19.92;;;11.43;;
44446;SDS011;30152;52.066;5.358;2023-07-24T13:49:46;14.98;;;9.57;;
44446;SDS011;30152;52.066;5.358;2023-07-24T13:52:11;14.90;;;9.40;;
44446;SDS011;30152;52.066;5.358;2023-07-24T13:54:37;17.05;;;8.90;;
44446;SDS011;30152;52.066;5.358;2023-07-24T13:57:03;16.50;;;9.23;;
44446;SDS011;30152;52.066;5.358;2023-07-24T13:59:28;15.32;;;8.20;;
44446;SDS011;30152;52.066;5.358;2023-07-24T14:01:54;13.35;;;7.70;;
44446;SDS011;30152;52.066;5.358;2023-07-24T14:04:19;18.60;;;10.50;;
44446;SDS011;30152;52.066;5.358;2023-07-24T14:06:45;17.90;;;10.63;;
44446;SDS011;30152;52.066;5.358;2023-07-24T14:09:11;19.15;;;11.10;;
44446;SDS011;30152;52.066;5.358;2023-07-24T14:11:37;15.80;;;10.85;;
44446;SDS011;30152;52.066;5.358;2023-07-24T14:14:02;18.33;;;11.00;;
44446;SDS011;30152;52.066;5.358;2023-07-24T14:16:28;20.67;;;11.27;;
44446;SDS011;30152;52.066;5.358;2023-07-24T14:18:54;23.38;;;11.75;;
44446;SDS011;30152;52.066;5.358;2023-07-24T14:21:19;19.33;;;11.35;;
44446;SDS011;30152;52.066;5.358;2023-07-24T14:23:45;22.08;;;11.77;;
44446;SDS011;30152;52.066;5.358;2023-07-24T14:26:11;32.15;;;14.23;;
44446;SDS011;30152;52.066;5.358;2023-07-24T14:28:38;22.20;;;12.60;;
44446;SDS011;30152;52.066;5.358;2023-07-24T14:31:03;20.23;;;12.15;;
44446;SDS011;30152;52.066;5.358;2023-07-24T14:33:30;20.35;;;11.50;;
44446;SDS011;30152;52.066;5.358;2023-07-24T14:35:56;21.60;;;11.93;;
44446;SDS011;30152;52.066;5.358;2023-07-24T14:38:22;18.27;;;11.18;;
44446;SDS011;30152;52.066;5.358;2023-07-24T14:40:48;19.13;;;8.90;;
44446;SDS011;30152;52.066;5.358;2023-07-24T14:43:13;15.82;;;8.55;;
44446;SDS011;30152;52.066;5.358;2023-07-24T14:45:39;13.40;;;7.97;;
44446;SDS011;30152;52.066;5.358;2023-07-24T14:48:05;10.32;;;5.85;;
44446;SDS011;30152;52.066;5.358;2023-07-24T14:50:35;12.70;;;4.60;;
44446;SDS011;30152;52.066;5.358;2023-07-24T14:53:00;12.85;;;4.68;;
44446;SDS011;30152;52.066;5.358;2023-07-24T14:55:26;8.18;;;4.65;;
44446;SDS011;30152;52.066;5.358;2023-07-24T14:57:52;12.50;;;4.38;;
44446;SDS011;30152;52.066;5.358;2023-07-24T15:00:17;10.13;;;4.20;;
44446;SDS011;30152;52.066;5.358;2023-07-24T15:02:43;11.60;;;5.35;;
44446;SDS011;30152;52.066;5.358;2023-07-24T15:05:08;8.38;;;3.80;;
44446;SDS011;30152;52.066;5.358;2023-07-24T15:07:34;7.63;;;3.17;;
44446;SDS011;30152;52.066;5.358;2023-07-24T15:09:59;6.55;;;2.88;;
44446;SDS011;30152;52.066;5.358;2023-07-24T15:12:25;8.35;;;2.97;;
44446;SDS011;30152;52.066;5.358;2023-07-24T15:14:51;8.25;;;2.83;;
44446;SDS011;30152;52.066;5.358;2023-07-24T15:17:16;8.40;;;2.97;;
44446;SDS011;30152;52.066;5.358;2023-07-24T15:19:43;9.10;;;3.70;;
44446;SDS011;30152;52.066;5.358;2023-07-24T15:22:09;8.18;;;2.47;;
44446;SDS011;30152;52.066;5.358;2023-07-24T15:24:35;6.50;;;2.75;;
44446;SDS011;30152;52.066;5.358;2023-07-24T15:27:00;8.25;;;2.92;;
44446;SDS011;30152;52.066;5.358;2023-07-24T15:29:32;10.13;;;2.70;;
44446;SDS011;30152;52.066;5.358;2023-07-24T15:31:59;10.10;;;2.92;;
44446;SDS011;30152;52.066;5.358;2023-07-24T15:34:24;8.48;;;2.80;;
44446;SDS011;30152;52.066;5.358;2023-07-24T15:36:50;6.93;;;2.78;;
44446;SDS011;30152;52.066;5.358;2023-07-24T15:39:16;7.68;;;2.55;;
44446;SDS011;30152;52.066;5.358;2023-07-24T15:41:44;6.85;;;2.17;;
44446;SDS011;30152;52.066;5.358;2023-07-24T15:44:09;6.00;;;2.13;;
44446;SDS011;30152;52.066;5.358;2023-07-24T15:46:35;9.23;;;2.05;;
44446;SDS011;30152;52.066;5.358;2023-07-24T15:49:01;5.35;;;1.50;;
44446;SDS011;30152;52.066;5.358;2023-07-24T15:51:27;7.28;;;2.00;;
44446;SDS011;30152;52.066;5.358;2023-07-24T15:53:54;6.85;;;2.00;;
44446;SDS011;30152;52.066;5.358;2023-07-24T15:56:20;5.68;;;1.73;;
44446;SDS011;30152;52.066;5.358;2023-07-24T15:58:48;8.40;;;1.90;;
44446;SDS011;30152;52.066;5.358;2023-07-24T16:01:14;6.70;;;1.63;;
44446;SDS011;30152;52.066;5.358;2023-07-24T16:03:40;6.00;;;1.73;;
44446;SDS011;30152;52.066;5.358;2023-07-24T16:06:07;7.63;;;1.60;;
44446;SDS011;30152;52.066;5.358;2023-07-24T16:08:34;6.13;;;1.50;;
44446;SDS011;30152;52.066;5.358;2023-07-24T16:11:01;3.63;;;1.40;;
44446;SDS011;30152;52.066;5.358;2023-07-24T16:13:26;6.95;;;1.65;;
44446;SDS011;30152;52.066;5.358;2023-07-24T16:15:52;7.97;;;1.10;;
44446;SDS011;30152;52.066;5.358;2023-07-24T16:18:20;4.78;;;1.20;;
44446;SDS011;30152;52.066;5.358;2023-07-24T16:20:47;11.55;;;1.52;;
44446;SDS011;30152;52.066;5.358;2023-07-24T16:23:12;5.95;;;1.20;;
44446;SDS011;30152;52.066;5.358;2023-07-24T16:25:38;2.80;;;0.95;;
44446;SDS011;30152;52.066;5.358;2023-07-24T16:28:04;5.65;;;1.20;;
44446;SDS011;30152;52.066;5.358;2023-07-24T16:30:30;5.07;;;0.88;;
44446;SDS011;30152;52.066;5.358;2023-07-24T16:32:56;4.25;;;0.80;;
44446;SDS011;30152;52.066;5.358;2023-07-24T16:35:23;4.03;;;0.82;;
44446;SDS011;30152;52.066;5.358;2023-07-24T16:37:49;4.25;;;1.13;;
44446;SDS011;30152;52.066;5.358;2023-07-24T16:40:15;3.83;;;1.00;;
44446;SDS011;30152;52.066;5.358;2023-07-24T16:42:40;3.72;;;1.05;;
44446;SDS011;30152;52.066;5.358;2023-07-24T16:45:06;7.00;;;0.90;;
44446;SDS011;30152;52.066;5.358;2023-07-24T16:47:32;2.33;;;0.60;;
44446;SDS011;30152;52.066;5.358;2023-07-24T16:49:58;3.47;;;0.70;;
44446;SDS011;30152;52.066;5.358;2023-07-24T16:52:25;1.58;;;0.50;;
44446;SDS011;30152;52.066;5.358;2023-07-24T16:54:50;1.92;;;0.70;;
44446;SDS011;30152;52.066;5.358;2023-07-24T16:57:16;2.78;;;0.52;;
44446;SDS011;30152;52.066;5.358;2023-07-24T16:59:42;4.25;;;0.85;;
44446;SDS011;30152;52.066;5.358;2023-07-24T17:02:07;9.23;;;1.05;;
44446;SDS011;30152;52.066;5.358;2023-07-24T17:04:33;5.47;;;1.00;;
44446;SDS011;30152;52.066;5.358;2023-07-24T17:06:59;4.80;;;0.95;;
44446;SDS011;30152;52.066;5.358;2023-07-24T17:09:26;6.00;;;1.10;;
44446;SDS011;30152;52.066;5.358;2023-07-24T17:11:52;3.72;;;1.00;;
44446;SDS011;30152;52.066;5.358;2023-07-24T17:14:18;4.68;;;0.98;;
44446;SDS011;30152;52.066;5.358;2023-07-24T17:16:43;5.60;;;1.52;;
44446;SDS011;30152;52.066;5.358;2023-07-24T17:19:09;5.65;;;1.20;;
44446;SDS011;30152;52.066;5.358;2023-07-24T17:21:35;6.40;;;1.00;;
44446;SDS011;30152;52.066;5.358;2023-07-24T17:24:01;5.50;;;1.48;;
44446;SDS011;30152;52.066;5.358;2023-07-24T17:26:28;3.17;;;1.00;;
44446;SDS011;30152;52.066;5.358;2023-07-24T17:28:57;7.32;;;1.08;;
44446;SDS011;30152;52.066;5.358;2023-07-24T17:31:26;4.80;;;0.95;;
44446;SDS011;30152;52.066;5.358;2023-07-24T17:33:52;7.47;;;1.23;;
44446;SDS011;30152;52.066;5.358;2023-07-24T17:36:17;9.65;;;1.30;;
44446;SDS011;30152;52.066;5.358;2023-07-24T17:38:43;2.55;;;0.98;;
44446;SDS011;30152;52.066;5.358;2023-07-24T17:41:09;5.38;;;1.23;;
44446;SDS011;30152;52.066;5.358;2023-07-24T17:43:34;3.90;;;1.00;;
44446;SDS011;30152;52.066;5.358;2023-07-24T17:46:00;4.75;;;1.08;;
44446;SDS011;30152;52.066;5.358;2023-07-24T17:48:26;3.45;;;1.05;;
44446;SDS011;30152;52.066;5.358;2023-07-24T17:50:52;7.10;;;1.30;;
44446;SDS011;30152;52.066;5.358;2023-07-24T17:53:18;4.90;;;1.33;;
44446;SDS011;30152;52.066;5.358;2023-07-24T17:55:43;5.20;;;1.45;;
44446;SDS011;30152;52.066;5.358;2023-07-24T17:58:09;3.72;;;1.33;;
44446;SDS011;30152;52.066;5.358;2023-07-24T18:00:35;4.95;;;1.38;;
44446;SDS011;30152;52.066;5.358;2023-07-24T18:03:02;5.68;;;1.23;;
44446;SDS011;30152;52.066;5.358;2023-07-24T18:05:28;4.40;;;1.60;;
44446;SDS011;30152;52.066;5.358;2023-07-24T18:07:54;6.35;;;1.45;;
44446;SDS011;30152;52.066;5.358;2023-07-24T18:10:19;5.90;;;1.48;;
44446;SDS011;30152;52.066;5.358;2023-07-24T18:12:46;7.65;;;1.35;;
44446;SDS011;30152;52.066;5.358;2023-07-24T18:15:12;7.85;;;1.63;;
44446;SDS011;30152;52.066;5.358;2023-07-24T18:17:37;7.53;;;1.10;;
44446;SDS011;30152;52.066;5.358;2023-07-24T18:20:04;5.03;;;1.90;;
44446;SDS011;30152;52.066;5.358;2023-07-24T18:22:30;6.38;;;1.45;;
44446;SDS011;30152;52.066;5.358;2023-07-24T18:24:56;6.03;;;1.85;;
44446;SDS011;30152;52.066;5.358;2023-07-24T18:27:22;7.20;;;1.65;;
44446;SDS011;30152;52.066;5.358;2023-07-24T18:29:48;8.57;;;1.80;;
44446;SDS011;30152;52.066;5.358;2023-07-24T18:32:13;8.43;;;1.65;;
44446;SDS011;30152;52.066;5.358;2023-07-24T18:34:39;4.07;;;1.50;;
44446;SDS011;30152;52.066;5.358;2023-07-24T18:37:04;5.25;;;1.30;;
44446;SDS011;30152;52.066;5.358;2023-07-24T18:39:30;5.70;;;1.40;;
44446;SDS011;30152;52.066;5.358;2023-07-24T18:41:55;5.38;;;1.58;;
44446;SDS011;30152;52.066;5.358;2023-07-24T18:44:21;5.40;;;1.55;;
44446;SDS011;30152;52.066;5.358;2023-07-24T18:46:47;6.22;;;1.65;;
44446;SDS011;30152;52.066;5.358;2023-07-24T18:49:12;8.38;;;1.70;;
44446;SDS011;30152;52.066;5.358;2023-07-24T18:51:38;7.22;;;1.73;;
44446;SDS011;30152;52.066;5.358;2023-07-24T18:54:03;7.60;;;1.70;;
44446;SDS011;30152;52.066;5.358;2023-07-24T18:56:29;9.63;;;1.85;;
44446;SDS011;30152;52.066;5.358;2023-07-24T18:58:55;5.32;;;1.50;;
44446;SDS011;30152;52.066;5.358;2023-07-24T19:01:21;8.65;;;1.55;;
44446;SDS011;30152;52.066;5.358;2023-07-24T19:03:46;8.70;;;1.67;;
44446;SDS011;30152;52.066;5.358;2023-07-24T19:06:12;8.00;;;1.90;;
44446;SDS011;30152;52.066;5.358;2023-07-24T19:08:38;5.90;;;1.80;;
44446;SDS011;30152;52.066;5.358;2023-07-24T19:11:04;4.43;;;1.50;;
44446;SDS011;30152;52.066;5.358;2023-07-24T19:13:30;12.07;;;1.88;;
44446;SDS011;30152;52.066;5.358;2023-07-24T19:15:58;7.88;;;1.70;;
44446;SDS011;30152;52.066;5.358;2023-07-24T19:18:24;4.70;;;1.40;;
44446;SDS011;30152;52.066;5.358;2023-07-24T19:20:50;7.28;;;1.90;;
44446;SDS011;30152;52.066;5.358;2023-07-24T19:23:15;8.18;;;1.80;;
44446;SDS011;30152;52.066;5.358;2023-07-24T19:25:41;7.50;;;1.77;;
44446;SDS011;30152;52.066;5.358;2023-07-24T19:28:06;6.47;;;1.70;;
44446;SDS011;30152;52.066;5.358;2023-07-24T19:30:32;7.90;;;2.08;;
44446;SDS011;30152;52.066;5.358;2023-07-24T19:32:58;9.85;;;1.92;;
44446;SDS011;30152;52.066;5.358;2023-07-24T19:35:24;4.45;;;1.40;;
44446;SDS011;30152;52.066;5.358;2023-07-24T19:37:50;4.30;;;1.35;;
44446;SDS011;30152;52.066;5.358;2023-07-24T19:40:16;11.30;;;1.65;;
44446;SDS011;30152;52.066;5.358;2023-07-24T19:42:41;4.97;;;1.83;;
44446;SDS011;30152;52.066;5.358;2023-07-24T19:45:07;9.15;;;1.40;;
44446;SDS011;30152;52.066;5.358;2023-07-24T19:47:32;9.90;;;1.77;;
44446;SDS011;30152;52.066;5.358;2023-07-24T19:49:58;5.15;;;2.00;;
44446;SDS011;30152;52.066;5.358;2023-07-24T19:52:23;5.93;;;1.63;;
44446;SDS011;30152;52.066;5.358;2023-07-24T19:54:49;8.75;;;2.30;;
44446;SDS011;30152;52.066;5.358;2023-07-24T19:57:16;8.73;;;1.90;;
44446;SDS011;30152;52.066;5.358;2023-07-24T19:59:41;10.30;;;1.80;;
44446;SDS011;30152;52.066;5.358;2023-07-24T20:02:08;6.40;;;1.52;;
44446;SDS011;30152;52.066;5.358;2023-07-24T20:04:35;4.97;;;1.50;;
44446;SDS011;30152;52.066;5.358;2023-07-24T20:07:00;6.35;;;1.77;;
44446;SDS011;30152;52.066;5.358;2023-07-24T20:09:26;5.10;;;1.52;;
44446;SDS011;30152;52.066;5.358;2023-07-24T20:11:52;9.65;;;1.98;;
44446;SDS011;30152;52.066;5.358;2023-07-24T20:14:18;4.97;;;1.50;;
44446;SDS011;30152;52.066;5.358;2023-07-24T20:16:43;6.65;;;1.67;;
44446;SDS011;30152;52.066;5.358;2023-07-24T20:19:09;6.72;;;1.65;;
44446;SDS011;30152;52.066;5.358;2023-07-24T20:21:34;6.47;;;1.98;;
44446;SDS011;30152;52.066;5.358;2023-07-24T20:24:08;5.43;;;1.73;;
44446;SDS011;30152;52.066;5.358;2023-07-24T20:26:34;8.27;;;1.55;;
44446;SDS011;30152;52.066;5.358;2023-07-24T20:29:00;7.68;;;2.10;;
44446;SDS011;30152;52.066;5.358;2023-07-24T20:31:25;5.22;;;1.50;;
44446;SDS011;30152;52.066;5.358;2023-07-24T20:33:52;6.07;;;1.73;;
44446;SDS011;30152;52.066;5.358;2023-07-24T20:36:17;10.93;;;2.05;;
44446;SDS011;30152;52.066;5.358;2023-07-24T20:38:43;4.72;;;1.77;;
44446;SDS011;30152;52.066;5.358;2023-07-24T20:41:09;10.15;;;2.10;;
44446;SDS011;30152;52.066;5.358;2023-07-24T20:43:35;6.20;;;2.40;;
44446;SDS011;30152;52.066;5.358;2023-07-24T20:46:11;6.43;;;2.22;;
44446;SDS011;30152;52.066;5.358;2023-07-24T20:48:37;10.38;;;2.15;;
44446;SDS011;30152;52.066;5.358;2023-07-24T20:51:04;7.50;;;2.13;;
44446;SDS011;30152;52.066;5.358;2023-07-24T20:53:30;10.48;;;2.00;;
44446;SDS011;30152;52.066;5.358;2023-07-24T20:55:56;10.68;;;2.58;;
44446;SDS011;30152;52.066;5.358;2023-07-24T20:58:23;6.25;;;1.90;;
44446;SDS011;30152;52.066;5.358;2023-07-24T21:00:48;8.65;;;2.47;;
44446;SDS011;30152;52.066;5.358;2023-07-24T21:03:14;10.82;;;2.60;;
44446;SDS011;30152;52.066;5.358;2023-07-24T21:05:39;9.10;;;2.17;;
44446;SDS011;30152;52.066;5.358;2023-07-24T21:08:06;8.30;;;1.98;;
44446;SDS011;30152;52.066;5.358;2023-07-24T21:10:31;7.97;;;2.83;;
44446;SDS011;30152;52.066;5.358;2023-07-24T21:12:57;7.95;;;2.28;;
44446;SDS011;30152;52.066;5.358;2023-07-24T21:15:22;6.20;;;2.40;;
44446;SDS011;30152;52.066;5.358;2023-07-24T21:17:49;8.60;;;2.50;;
44446;SDS011;30152;52.066;5.358;2023-07-24T21:20:14;7.43;;;2.20;;
44446;SDS011;30152;52.066;5.358;2023-07-24T21:22:40;5.85;;;1.95;;
44446;SDS011;30152;52.066;5.358;2023-07-24T21:25:05;6.60;;;2.55;;
44446;SDS011;30152;52.066;5.358;2023-07-24T21:27:32;7.22;;;1.95;;
